createdAt,value
2023-04-09T00:02:21.428Z,66.80
2023-04-09T00:05:12.418Z,66.76
2023-04-09T00:08:01.549Z,66.89
2023-04-09T00:10:50.866Z,66.89
2023-04-09T00:13:40.068Z,66.94
2023-04-09T00:16:30.307Z,66.86
2023-04-09T00:19:44.426Z,67.04
2023-04-09T00:22:34.376Z,66.89
2023-04-09T00:25:23.797Z,67.06
2023-04-09T00:28:12.856Z,66.90
2023-04-09T00:31:01.475Z,66.92
2023-04-09T00:33:51.095Z,66.82
2023-04-09T00:36:40.916Z,66.90
2023-04-09T00:39:30.889Z,66.78
2023-04-09T00:42:19.964Z,66.85
2023-04-09T00:45:10.078Z,66.94
2023-04-09T00:47:58.753Z,66.97
2023-04-09T00:50:48.254Z,67.11
2023-04-09T00:53:36.931Z,67.07
2023-04-09T00:56:30.202Z,67.15
2023-04-09T00:59:19.982Z,67.24
2023-04-09T01:02:09.533Z,67.15
2023-04-09T01:04:58.573Z,67.27
2023-04-09T01:08:02.652Z,67.14
2023-04-09T01:10:58.676Z,67.25
2023-04-09T01:13:54.587Z,67.36
2023-04-09T01:16:48.333Z,67.86
2023-04-09T01:19:45.345Z,67.92
2023-04-09T01:22:48.553Z,68.09
2023-04-09T01:25:46.628Z,68.20
2023-04-09T01:28:43.720Z,68.18
2023-04-09T01:31:35.883Z,68.34
2023-04-09T01:34:25.367Z,68.42
2023-04-09T01:37:16.305Z,68.32
2023-04-09T01:40:08.438Z,68.42
2023-04-09T01:42:59.246Z,68.50
2023-04-09T01:45:50.224Z,68.23
2023-04-09T01:48:39.712Z,68.36
2023-04-09T01:51:28.581Z,68.33
2023-04-09T01:54:18.873Z,68.23
2023-04-09T01:57:07.455Z,68.24
2023-04-09T01:59:58.011Z,68.32
2023-04-09T02:02:57.066Z,68.26
2023-04-09T02:05:53.133Z,68.14
2023-04-09T02:08:46.276Z,68.26
2023-04-09T02:11:38.944Z,68.26
2023-04-09T02:14:30.689Z,68.14
2023-04-09T02:17:21.032Z,68.38
2023-04-09T02:20:12.526Z,68.39
2023-04-09T02:23:02.072Z,68.02
2023-04-09T02:25:50.908Z,68.08
2023-04-09T02:28:40.831Z,68.07
2023-04-09T02:31:29.754Z,68.18
2023-04-09T02:34:18.849Z,68.14
2023-04-09T02:37:09.047Z,68.16
2023-04-09T02:39:59.381Z,68.31
2023-04-09T02:42:48.065Z,68.22
2023-04-09T02:45:36.883Z,68.13
2023-04-09T02:48:25.716Z,68.13
2023-04-09T02:51:15.962Z,67.88
2023-04-09T02:54:05.979Z,68.12
2023-04-09T02:56:56.244Z,68.11
2023-04-09T02:59:45.607Z,68.00
2023-04-09T03:02:35.161Z,67.71
2023-04-09T03:05:24.019Z,67.64
2023-04-09T03:08:13.025Z,67.71
2023-04-09T03:11:02.983Z,67.80
2023-04-09T03:13:52.365Z,67.98
2023-04-09T03:16:41.000Z,67.77
2023-04-09T03:19:32.263Z,67.73
2023-04-09T03:22:22.221Z,67.70
2023-04-09T03:25:14.073Z,67.57
2023-04-09T03:28:04.225Z,67.69
2023-04-09T03:31:01.540Z,67.85
2023-04-09T03:33:52.415Z,67.91
2023-04-09T03:36:42.560Z,67.64
2023-04-09T03:39:41.194Z,67.80
2023-04-09T03:42:30.340Z,67.49
2023-04-09T03:45:20.833Z,67.46
2023-04-09T03:48:14.034Z,67.55
2023-04-09T03:51:02.760Z,67.88
2023-04-09T03:53:59.982Z,67.73
2023-04-09T03:56:49.155Z,67.72
2023-04-09T03:59:44.131Z,67.66
2023-04-09T04:02:34.983Z,67.52
2023-04-09T04:05:27.508Z,67.49
2023-04-09T04:08:19.036Z,67.36
2023-04-09T04:11:09.716Z,67.25
2023-04-09T04:13:59.198Z,67.23
2023-04-09T04:16:48.744Z,67.19
2023-04-09T04:19:42.415Z,67.42
2023-04-09T04:22:31.945Z,67.58
2023-04-09T04:25:21.981Z,67.35
2023-04-09T04:28:10.922Z,67.25
2023-04-09T04:31:03.890Z,67.11
2023-04-09T04:33:54.647Z,67.08
2023-04-09T04:36:44.869Z,66.93
2023-04-09T04:39:34.971Z,67.18
2023-04-09T04:42:28.167Z,67.51
2023-04-09T04:45:18.029Z,67.68
2023-04-09T04:48:11.501Z,67.59
2023-04-09T04:51:02.775Z,67.59
2023-04-09T04:54:00.811Z,68.01
2023-04-09T04:56:50.862Z,67.85
2023-04-09T04:59:55.217Z,68.09
2023-04-09T05:02:44.460Z,67.59
2023-04-09T05:05:41.638Z,67.67
2023-04-09T05:08:31.760Z,67.53
2023-04-09T05:11:22.187Z,67.75
2023-04-09T05:14:13.534Z,67.40
2023-04-09T05:17:02.443Z,67.35
2023-04-09T05:20:02.331Z,67.24
2023-04-09T05:23:03.707Z,67.38
2023-04-09T05:25:58.364Z,67.41
2023-04-09T05:28:57.489Z,67.52
2023-04-09T05:31:47.125Z,67.53
2023-04-09T05:34:47.714Z,67.48
2023-04-09T05:37:38.276Z,67.35
2023-04-09T05:40:28.128Z,67.42
2023-04-09T05:43:16.883Z,67.40
2023-04-09T05:46:07.361Z,67.43
2023-04-09T05:48:57.088Z,67.42
2023-04-09T05:51:48.132Z,67.43
2023-04-09T05:54:42.997Z,67.35
2023-04-09T05:57:33.307Z,67.31
2023-04-09T06:00:25.762Z,67.30
2023-04-09T06:03:15.821Z,67.24
2023-04-09T06:06:05.084Z,67.21
2023-04-09T06:08:53.826Z,67.17
2023-04-09T06:11:42.525Z,67.19
2023-04-09T06:14:33.517Z,67.22
2023-04-09T06:17:22.748Z,67.38
2023-04-09T06:20:13.391Z,67.23
2023-04-09T06:23:02.195Z,67.53
2023-04-09T06:25:51.358Z,67.59
2023-04-09T06:28:40.012Z,67.50
2023-04-09T06:31:29.111Z,67.69
2023-04-09T06:34:17.765Z,67.87
2023-04-09T06:37:08.851Z,67.83
2023-04-09T06:40:00.836Z,67.74
2023-04-09T06:42:50.525Z,67.74
2023-04-09T06:45:48.438Z,67.79
2023-04-09T06:48:38.476Z,67.65
2023-04-09T06:51:27.147Z,67.54
2023-04-09T06:54:17.574Z,67.82
2023-04-09T06:57:07.560Z,67.73
2023-04-09T06:59:56.484Z,67.89
2023-04-09T07:02:45.367Z,67.65
2023-04-09T07:05:34.170Z,67.84
2023-04-09T07:08:23.816Z,68.00
2023-04-09T07:11:13.729Z,67.72
2023-04-09T07:14:02.357Z,67.98
2023-04-09T07:16:50.932Z,67.99
2023-04-09T07:19:40.243Z,68.06
2023-04-09T07:22:31.924Z,68.08
2023-04-09T07:25:21.538Z,67.92
2023-04-09T07:28:11.993Z,68.14
2023-04-09T07:31:02.898Z,67.70
2023-04-09T07:33:52.753Z,67.59
2023-04-09T07:36:42.912Z,67.42
2023-04-09T07:39:31.943Z,67.03
2023-04-09T07:42:21.150Z,67.00
2023-04-09T07:45:11.504Z,66.79
2023-04-09T07:48:04.741Z,66.47
2023-04-09T07:50:53.442Z,66.42
2023-04-09T07:53:43.284Z,66.15
2023-04-09T07:56:31.880Z,66.13
2023-04-09T07:59:21.425Z,65.98
2023-04-09T08:02:14.283Z,66.01
2023-04-09T08:05:04.700Z,65.56
2023-04-09T08:07:53.413Z,65.54
2023-04-09T08:10:42.369Z,65.50
2023-04-09T08:13:31.020Z,65.19
2023-04-09T08:16:21.597Z,65.09
2023-04-09T08:19:12.246Z,64.91
2023-04-09T08:22:00.829Z,64.80
2023-04-09T08:24:53.278Z,64.67
2023-04-09T08:27:42.294Z,64.44
2023-04-09T08:30:30.859Z,63.86
2023-04-09T08:33:19.836Z,63.67
2023-04-09T08:36:11.773Z,63.47
2023-04-09T08:39:01.004Z,63.55
2023-04-09T08:41:50.365Z,63.47
2023-04-09T08:44:41.302Z,63.06
2023-04-09T08:47:30.105Z,62.24
2023-04-09T08:50:19.234Z,61.86
2023-04-09T08:53:11.841Z,61.38
2023-04-09T08:56:00.479Z,61.08
2023-04-09T08:58:49.521Z,60.82
2023-04-09T09:01:38.560Z,60.87
2023-04-09T09:04:46.178Z,62.13
2023-04-09T09:07:35.347Z,61.09
2023-04-09T09:10:38.281Z,60.67
2023-04-09T09:13:28.934Z,60.57
2023-04-09T09:16:18.867Z,60.36
2023-04-09T09:19:07.762Z,59.97
2023-04-09T09:21:58.056Z,59.40
2023-04-09T09:24:49.889Z,59.43
2023-04-09T09:27:40.948Z,59.38
2023-04-09T09:30:32.438Z,59.16
2023-04-09T09:33:21.379Z,58.97
2023-04-09T09:36:11.116Z,58.70
2023-04-09T09:39:03.814Z,58.71
2023-04-09T09:42:08.906Z,58.84
2023-04-09T09:44:59.817Z,58.61
2023-04-09T09:47:50.909Z,58.74
2023-04-09T09:50:41.760Z,58.77
2023-04-09T09:53:33.889Z,58.62
2023-04-09T09:56:24.689Z,58.60
2023-04-09T09:59:18.687Z,58.67
2023-04-09T10:02:19.267Z,58.86
2023-04-09T10:05:11.105Z,58.66
2023-04-09T10:08:01.681Z,58.63
2023-04-09T10:10:53.412Z,58.64
2023-04-09T10:13:50.144Z,58.78
2023-04-09T10:16:39.530Z,58.24
2023-04-09T10:19:30.552Z,58.14
2023-04-09T10:22:24.183Z,58.01
2023-04-09T10:25:13.142Z,57.94
2023-04-09T10:28:02.615Z,57.61
2023-04-09T10:30:51.489Z,56.78
2023-04-09T10:33:40.604Z,56.62
2023-04-09T10:36:31.949Z,56.84
2023-04-09T10:39:21.126Z,56.22
2023-04-09T10:42:14.790Z,56.14
2023-04-09T10:45:09.018Z,55.78
2023-04-09T10:47:57.977Z,55.75
2023-04-09T10:50:46.802Z,55.81
2023-04-09T10:53:37.449Z,55.76
2023-04-09T10:56:26.135Z,56.08
2023-04-09T10:59:15.137Z,55.72
2023-04-09T11:02:07.870Z,55.79
2023-04-09T11:05:08.201Z,55.96
2023-04-09T11:08:04.146Z,55.61
2023-04-09T11:10:58.325Z,55.71
2023-04-09T11:13:46.952Z,55.47
2023-04-09T11:16:36.663Z,55.43
2023-04-09T11:19:27.423Z,54.78
2023-04-09T11:22:17.338Z,55.08
2023-04-09T11:25:07.853Z,54.40
2023-04-09T11:27:57.830Z,53.97
2023-04-09T11:30:48.223Z,53.39
2023-04-09T11:33:36.926Z,52.63
2023-04-09T11:36:27.943Z,52.02
2023-04-09T11:39:16.526Z,51.50
2023-04-09T11:42:05.798Z,51.54
2023-04-09T11:44:56.318Z,51.28
2023-04-09T11:47:46.736Z,51.64
2023-04-09T11:50:35.964Z,51.40
2023-04-09T11:53:32.152Z,51.24
2023-04-09T11:56:21.012Z,51.31
2023-04-09T11:59:10.642Z,51.16
2023-04-09T12:02:01.536Z,50.97
2023-04-09T12:04:51.406Z,50.75
2023-04-09T12:07:42.338Z,51.15
2023-04-09T12:10:36.763Z,51.21
2023-04-09T12:13:33.722Z,51.52
2023-04-09T12:16:22.752Z,51.20
2023-04-09T12:19:13.851Z,51.17
2023-04-09T12:22:02.474Z,51.29
2023-04-09T12:24:52.101Z,51.31
2023-04-09T12:27:40.665Z,51.06
2023-04-09T12:30:30.926Z,51.26
2023-04-09T12:33:19.804Z,51.08
2023-04-09T12:36:11.092Z,50.58
2023-04-09T12:38:59.692Z,50.67
2023-04-09T12:41:49.155Z,50.45
2023-04-09T12:44:39.095Z,50.52
2023-04-09T12:47:29.215Z,50.31
2023-04-09T12:50:17.870Z,49.99
2023-04-09T12:53:08.915Z,49.30
2023-04-09T12:55:57.632Z,49.07
2023-04-09T12:58:47.097Z,48.06
2023-04-09T13:01:35.909Z,47.54
2023-04-09T13:04:25.550Z,47.15
2023-04-09T13:07:15.627Z,47.40
2023-04-09T13:10:06.505Z,47.29
2023-04-09T13:12:55.430Z,47.16
2023-04-09T13:15:45.459Z,47.43
2023-04-09T13:18:34.269Z,47.34
2023-04-09T13:21:22.916Z,47.67
2023-04-09T13:24:11.923Z,47.29
2023-04-09T13:27:02.433Z,47.03
2023-04-09T13:29:51.059Z,47.14
2023-04-09T13:32:39.690Z,47.52
2023-04-09T13:35:28.233Z,47.01
2023-04-09T13:38:17.789Z,47.02
2023-04-09T13:41:07.234Z,47.04
2023-04-09T13:43:57.133Z,47.19
2023-04-09T13:46:45.978Z,46.97
2023-04-09T13:49:34.629Z,47.58
2023-04-09T13:52:24.632Z,46.29
2023-04-09T13:55:14.073Z,45.60
2023-04-09T13:58:03.410Z,44.67
2023-04-09T14:00:53.326Z,44.39
2023-04-09T14:03:43.593Z,43.77
2023-04-09T14:06:32.277Z,43.13
2023-04-09T14:09:21.900Z,43.13
2023-04-09T14:12:10.788Z,42.61
2023-04-09T14:14:59.740Z,41.16
2023-04-09T14:17:49.662Z,40.13
2023-04-09T14:20:39.395Z,39.80
2023-04-09T14:23:28.205Z,39.39
2023-04-09T14:26:17.097Z,39.98
2023-04-09T14:29:06.215Z,40.23
2023-04-09T14:31:56.689Z,40.67
2023-04-09T14:34:47.737Z,40.31
2023-04-09T14:37:38.068Z,38.96
2023-04-09T14:40:26.618Z,38.34
2023-04-09T14:43:16.088Z,37.20
2023-04-09T14:46:06.749Z,36.54
2023-04-09T14:48:55.752Z,37.14
2023-04-09T14:51:45.834Z,37.51
2023-04-09T14:54:35.645Z,36.97
2023-04-09T14:57:24.284Z,37.03
2023-04-09T15:00:14.299Z,36.80
2023-04-09T15:03:03.958Z,36.94
2023-04-09T15:05:53.980Z,36.33
2023-04-09T15:08:43.866Z,36.57
2023-04-09T15:11:33.546Z,36.57
2023-04-09T15:14:24.342Z,36.53
2023-04-09T15:17:13.028Z,36.65
2023-04-09T15:20:03.693Z,36.58
2023-04-09T15:22:52.297Z,36.90
2023-04-09T15:25:42.945Z,36.83
2023-04-09T15:28:31.939Z,36.15
2023-04-09T15:31:21.584Z,36.11
2023-04-09T15:34:10.232Z,36.08
2023-04-09T15:36:59.674Z,35.93
2023-04-09T15:39:48.404Z,36.27
2023-04-09T15:42:38.947Z,35.97
2023-04-09T15:45:27.989Z,36.30
2023-04-09T15:48:17.225Z,37.00
2023-04-09T15:51:06.221Z,37.43
2023-04-09T15:53:55.786Z,37.73
2023-04-09T15:56:44.403Z,37.68
2023-04-09T15:59:35.616Z,37.38
2023-04-09T16:02:26.086Z,37.46
2023-04-09T16:05:14.929Z,37.54
2023-04-09T16:08:03.568Z,37.77
2023-04-09T16:10:53.146Z,37.90
2023-04-09T16:13:42.285Z,37.79
2023-04-09T16:16:32.716Z,37.55
2023-04-09T16:19:21.573Z,37.21
2023-04-09T16:22:11.721Z,37.39
2023-04-09T16:25:00.490Z,37.64
2023-04-09T16:27:49.153Z,37.64
2023-04-09T16:30:38.191Z,37.58
2023-04-09T16:33:29.340Z,37.70
2023-04-09T16:36:20.358Z,37.65
2023-04-09T16:39:09.025Z,37.33
2023-04-09T16:41:59.725Z,37.81
2023-04-09T16:44:48.732Z,37.55
2023-04-09T16:47:37.432Z,37.92
2023-04-09T16:50:27.576Z,38.27
2023-04-09T16:53:16.775Z,38.79
2023-04-09T16:56:06.568Z,38.88
2023-04-09T16:58:55.804Z,39.63
2023-04-09T17:01:44.469Z,39.64
2023-04-09T17:04:34.511Z,39.98
2023-04-09T17:07:24.559Z,40.62
2023-04-09T17:10:13.299Z,40.70
2023-04-09T17:13:02.574Z,41.13
2023-04-09T17:15:53.965Z,41.35
2023-04-09T17:18:42.988Z,41.56
2023-04-09T17:21:31.567Z,41.55
2023-04-09T17:24:22.308Z,41.78
2023-04-09T17:27:11.577Z,41.97
2023-04-09T17:30:00.269Z,42.24
2023-04-09T17:32:51.120Z,42.48
2023-04-09T17:35:39.806Z,42.76
2023-04-09T17:38:29.535Z,43.37
2023-04-09T17:41:19.488Z,43.46
2023-04-09T17:44:09.048Z,44.13
2023-04-09T17:46:57.586Z,44.13
2023-04-09T17:49:47.184Z,44.85
2023-04-09T17:52:37.324Z,45.30
2023-04-09T17:55:27.341Z,45.69
2023-04-09T17:58:17.985Z,46.32
2023-04-09T18:01:08.555Z,46.99
2023-04-09T18:03:57.567Z,47.32
2023-04-09T18:06:46.288Z,48.07
2023-04-09T18:09:37.861Z,48.33
2023-04-09T18:12:27.618Z,48.57
2023-04-09T18:15:18.663Z,49.12
2023-04-09T18:18:07.998Z,49.31
2023-04-09T18:20:56.573Z,49.93
2023-04-09T18:23:46.897Z,49.98
2023-04-09T18:26:36.601Z,50.55
2023-04-09T18:29:27.786Z,50.26
2023-04-09T18:32:19.919Z,50.73
2023-04-09T18:35:09.190Z,51.04
2023-04-09T18:37:58.713Z,51.17
2023-04-09T18:40:47.752Z,51.66
2023-04-09T18:43:36.424Z,51.73
2023-04-09T18:46:26.117Z,51.96
2023-04-09T18:49:16.174Z,51.95
2023-04-09T18:52:06.782Z,52.27
2023-04-09T18:54:55.377Z,52.34
2023-04-09T18:57:44.778Z,52.46
2023-04-09T19:00:33.304Z,52.71
2023-04-09T19:03:23.937Z,52.95
2023-04-09T19:06:17.553Z,52.84
2023-04-09T19:09:06.897Z,52.89
2023-04-09T19:11:57.591Z,53.00
2023-04-09T19:14:46.226Z,53.23
2023-04-09T19:17:35.795Z,53.12
2023-04-09T19:20:24.414Z,53.37
2023-04-09T19:23:15.252Z,53.64
2023-04-09T19:26:05.482Z,53.96
2023-04-09T19:28:55.303Z,54.09
2023-04-09T19:31:44.130Z,53.85
2023-04-09T19:34:34.211Z,54.07
2023-04-09T19:37:27.184Z,54.17
2023-04-09T19:40:18.547Z,54.30
2023-04-09T19:43:07.118Z,54.58
2023-04-09T19:45:56.782Z,54.37
2023-04-09T19:48:45.401Z,54.80
2023-04-09T19:51:34.685Z,54.83
2023-04-09T19:54:23.600Z,54.89
2023-04-09T19:57:13.514Z,55.25
2023-04-09T20:00:02.856Z,55.36
2023-04-09T20:03:01.092Z,55.49
2023-04-09T20:05:50.709Z,55.75
2023-04-09T20:08:39.367Z,55.75
2023-04-09T20:11:29.992Z,56.14
2023-04-09T20:14:20.337Z,56.15
2023-04-09T20:17:10.642Z,56.18
2023-04-09T20:19:59.957Z,56.29
2023-04-09T20:22:55.611Z,56.10
2023-04-09T20:25:46.518Z,56.43
2023-04-09T20:28:35.201Z,56.40
2023-04-09T20:31:28.967Z,56.21
2023-04-09T20:34:17.582Z,56.36
2023-04-09T20:37:06.735Z,56.40
2023-04-09T20:39:55.641Z,56.26
2023-04-09T20:42:45.874Z,56.59
2023-04-09T20:45:34.456Z,56.43
2023-04-09T20:48:24.833Z,56.60
2023-04-09T20:51:13.454Z,56.62
2023-04-09T20:54:02.962Z,56.66
2023-04-09T20:56:51.509Z,56.85
2023-04-09T20:59:40.882Z,56.86
2023-04-09T21:02:30.185Z,56.95
2023-04-09T21:05:23.964Z,57.18
2023-04-09T21:08:15.356Z,56.96
2023-04-09T21:11:04.001Z,57.12
2023-04-09T21:13:55.127Z,57.11
2023-04-09T21:16:44.273Z,57.28
2023-04-09T21:19:33.312Z,57.23
2023-04-09T21:22:23.949Z,57.34
2023-04-09T21:25:15.127Z,57.31
2023-04-09T21:28:04.541Z,57.52
2023-04-09T21:30:53.111Z,57.68
2023-04-09T21:33:42.608Z,57.78
2023-04-09T21:36:34.699Z,57.83
2023-04-09T21:39:24.606Z,58.02
2023-04-09T21:42:14.813Z,57.85
2023-04-09T21:45:03.595Z,57.91
2023-04-09T21:47:53.254Z,58.10
2023-04-09T21:50:41.800Z,58.29
2023-04-09T21:53:31.987Z,58.16
2023-04-09T21:56:21.868Z,58.32
2023-04-09T21:59:11.280Z,58.32
2023-04-09T22:01:59.952Z,58.75
2023-04-09T22:04:50.164Z,58.69
2023-04-09T22:07:39.857Z,58.79
2023-04-09T22:10:29.898Z,58.72
2023-04-09T22:13:19.806Z,58.80
2023-04-09T22:16:10.153Z,58.78
2023-04-09T22:18:58.803Z,58.92
2023-04-09T22:21:50.954Z,59.08
2023-04-09T22:24:39.527Z,58.94
2023-04-09T22:27:29.789Z,59.14
2023-04-09T22:30:21.202Z,58.96
2023-04-09T22:33:09.759Z,58.95
2023-04-09T22:36:00.766Z,58.93
2023-04-09T22:38:49.326Z,58.84
2023-04-09T22:41:38.822Z,58.86
2023-04-09T22:44:27.355Z,58.91
2023-04-09T22:47:18.369Z,59.04
2023-04-09T22:50:09.086Z,59.12
2023-04-09T22:52:58.748Z,59.37
2023-04-09T22:55:51.321Z,59.62
2023-04-09T22:58:40.280Z,59.86
2023-04-09T23:01:29.842Z,59.98
2023-04-09T23:04:24.053Z,60.15
2023-04-09T23:07:13.406Z,60.22
2023-04-09T23:10:02.096Z,60.19
2023-04-09T23:12:52.044Z,60.32
2023-04-09T23:15:41.009Z,60.39
2023-04-09T23:18:29.557Z,60.27
2023-04-09T23:21:19.863Z,60.35
2023-04-09T23:24:08.412Z,60.23
2023-04-09T23:26:57.772Z,60.08
2023-04-09T23:29:46.698Z,59.79
2023-04-09T23:32:36.188Z,59.95
2023-04-09T23:35:24.765Z,60.12
2023-04-09T23:38:16.608Z,60.33
2023-04-09T23:41:05.965Z,60.67
2023-04-09T23:43:55.144Z,60.90
2023-04-09T23:46:43.824Z,61.12
2023-04-09T23:49:34.288Z,61.25
2023-04-09T23:52:23.906Z,60.89
2023-04-09T23:55:15.731Z,60.73
2023-04-09T23:58:04.488Z,60.56
